Time;durP1;ratioP1;P1;durP2;ratioP2;P2;SDS_P1;SDS_P2;PMS_P1;PMS_P2;Temp;Humidity;BMP_temperature;BMP_pressure;BME280_temperature;BME280_humidity;BME280_pressure;Samples;Min_cycle;Max_cycle;Signal;HPM_P1;HPM_P2
2023/02/21 02:13:55;;;;;;;;;;;;;;;;;;1031528;28;20272;-56
2023/02/21 02:14:26;;;;;;;;;;;;;;;;;;1031087;28;20387;-58
2023/02/21 02:14:56;;;;;;;;;;;;;;;;;;1031272;28;20475;-57
2023/02/21 02:15:27;;;;;;;;;;;;;;;;;;1031148;28;20037;-58
2023/02/21 02:15:58;;;;;;;;;;;;;;;;;;1031392;28;20384;-57
2023/02/21 02:16:29;;;;;;;;;;;;;;;;;;1031382;28;20252;-58
2023/02/21 02:17:00;;;;;;;;;;;;;;;;;;1031662;28;19905;-56
2023/02/21 02:17:31;;;;;;;;;;;;;;;;;;1031464;28;20261;-58
2023/02/21 02:18:02;;;;;;;;;;;;;;;;;;1031778;28;19956;-57
2023/02/21 02:18:33;;;;;;;;;;;;;;;;;;1031448;28;20284;-57
2023/02/21 02:19:03;;;;;;;;;;;;;;;;;;1031659;28;19902;-57
2023/02/21 02:19:34;;;;;;;;;;;;;;;;;;1031531;28;20281;-58
2023/02/21 02:20:05;;;;;;;;;;;;;;;;;;1031444;28;19913;-58
2023/02/21 02:20:37;;;;;;;;;;;;;;;;;;1031142;28;19906;-57
2023/02/21 02:21:08;;;;;;;;;;;;;;;;;;1031567;28;20345;-56
2023/02/21 02:21:41;;;;;;;;;;;;;;;;;;1031455;28;20376;-58
2023/02/21 02:22:12;;;;;;;;;;;;;;;;;;1029798;28;19910;-57
2023/02/21 02:22:42;;;;;;;;;;;;;;;;;;1027623;28;20034;-56
2023/02/21 02:23:13;;;;;;;;;;;;;;;;;;1027707;28;19928;-58
2023/02/21 02:23:44;;;;;;;;;;;;;;;;;;1027394;28;19910;-58
2023/02/21 02:24:15;;;;;;;;;;;;;;;;;;1027671;28;19997;-58
2023/02/21 02:24:46;;;;;;;;;;;;;;;;;;1027412;28;19913;-58
2023/02/21 02:25:17;;;;;;;;;;;;;;;;;;1030108;28;19996;-58
2023/02/21 02:25:48;;;;;;;;;;;;;;;;;;1027316;28;19906;-58
2023/02/21 02:26:18;;;;;;;;;;;;;;;;;;1027658;28;19918;-57
2023/02/21 02:26:49;;;;;;;;;;;;;;;;;;1028743;28;20068;-58
2023/02/21 02:27:20;;;;;;;;;;;;;;;;;;1029712;28;19913;-58
2023/02/21 02:27:51;;;;;;;;;;;;;;;;;;1027336;28;20010;-58
2023/02/21 02:28:22;;;;;;;;;;;;;;;;;;1028015;28;19906;-58
2023/02/21 02:28:53;;;;;;;;;;;;;;;;;;1031008;28;19906;-57
2023/02/21 02:29:25;;;;;;;;;;;;;;;;;;1031436;28;19964;-58
2023/02/21 02:29:56;;;;;;;;;;;;;;;;;;1031622;28;19902;-57
2023/02/21 02:30:27;;;;;;;;;;;;;;;;;;1031474;28;20361;-58
2023/02/21 02:30:58;;;;;;;;;;;;;;;;;;1031384;28;19906;-57
2023/02/21 02:31:29;;;;;;;;;;;;;;;;;;1031503;28;19996;-58
2023/02/21 02:32:00;;;;;;;;;;;;;;;;;;1031527;28;19955;-58
2023/02/21 02:32:31;;;;;;;;;;;;;;;;;;1031254;28;20525;-58
2023/02/21 02:33:02;;;;;;;;;;;;;;;;;;1031434;28;19910;-58
2023/02/21 02:33:32;;;;;;;;;;;;;;;;;;1031553;28;20387;-58
2023/02/21 02:34:04;;;;;;;;;;;;;;;;;;1031213;28;19992;-57
2023/02/21 02:34:35;;;;;;;;;;;;;;;;;;1031645;28;20481;-57
2023/02/21 02:35:07;;;;;;;;;;;;;;;;;;1031343;28;20270;-57
2023/02/21 02:35:37;;;;;;;;;;;;;;;;;;1031504;28;19905;-58
2023/02/21 02:36:08;;;;;;;;;;;;;;;;;;1031449;28;19905;-58
2023/02/21 02:36:39;;;;;;;;;;;;;;;;;;1031601;28;20412;-58
2023/02/21 02:37:10;;;;;;;;;;;;;;;;;;1031301;28;19993;-58
2023/02/21 02:37:41;;;;;;;;;;;;;;;;;;1031268;28;19906;-58
2023/02/21 02:38:12;;;;;;;;;;;;;;;;;;1031274;28;19906;-58
2023/02/21 02:38:43;;;;;;;;;;;;;;;;;;1031297;28;20629;-58
2023/02/21 02:39:14;;;;;;;;;;;;;;;;;;1031419;28;19906;-58
2023/02/21 02:39:45;;;;;;;;;;;;;;;;;;1031525;28;20567;-58
2023/02/21 02:40:15;;;;;;;;;;;;;;;;;;1029335;28;19920;-57
2023/02/21 02:40:47;;;;;;;;;;;;;;;;;;1027904;28;19962;-58
2023/02/21 02:41:18;;;;;;;;;;;;;;;;;;1031524;28;19910;-58
2023/02/21 02:41:49;;;;;;;;;;;;;;;;;;1031487;28;19906;-57
2023/02/21 02:42:20;;;;;;;;;;;;;;;;;;1031384;28;19906;-58
2023/02/21 02:42:51;;;;;;;;;;;;;;;;;;1031337;28;19983;-57
2023/02/21 02:43:22;;;;;;;;;;;;;;;;;;1031453;28;19906;-57
2023/02/21 02:43:53;;;;;;;;;;;;;;;;;;1031065;28;19906;-58
2023/02/21 02:44:24;;;;;;;;;;;;;;;;;;1029469;28;19929;-57
2023/02/21 02:44:55;;;;;;;;;;;;;;;;;;1031493;28;19906;-58
2023/02/21 02:45:26;;;;;;;;;;;;;;;;;;1031135;28;19906;-57
2023/02/21 02:45:57;;;;;;;;;;;;;;;;;;1031209;28;19937;-57
2023/02/21 02:46:27;;;;;;;;;;;;;;;;;;1028286;28;19909;-58
2023/02/21 02:46:58;;;;;;;;;;;;;;;;;;1027336;28;19902;-57
2023/02/21 02:47:29;;;;;;;;;;;;;;;;;;1027282;28;19957;-59
2023/02/21 02:48:00;;;;;;;;;;;;;;;;;;1027416;28;19913;-57
2023/02/21 02:48:31;;;;;;;;;;;;;;;;;;1027416;28;19910;-57
2023/02/21 02:49:02;;;;;;;;;;;;;;;;;;1027387;28;19918;-57
2023/02/21 02:49:33;;;;;;;;;;;;;;;;;;1027542;28;20337;-57
2023/02/21 02:50:03;;;;;;;;;;;;;;;;;;1029205;28;19909;-57
2023/02/21 02:50:34;;;;;;;;;;;;;;;;;;1028678;28;20029;-57
2023/02/21 02:51:05;;;;;;;;;;;;;;;;;;1027455;28;19913;-57
2023/02/21 02:51:36;;;;;;;;;;;;;;;;;;1031530;28;19906;-58
2023/02/21 02:52:07;;;;;;;;;;;;;;;;;;1031175;28;19906;-57
2023/02/21 02:52:38;;;;;;;;;;;;;;;;;;1031380;28;20036;-58
2023/02/21 02:53:09;;;;;;;;;;;;;;;;;;1031316;28;19913;-58
2023/02/21 02:53:39;;;;;;;;;;;;;;;;;;1031319;28;19905;-57
2023/02/21 02:54:10;;;;;;;;;;;;;;;;;;1031237;28;20674;-58
2023/02/21 02:54:41;;;;;;;;;;;;;;;;;;1030448;28;19909;-58
2023/02/21 02:55:12;;;;;;;;;;;;;;;;;;1029386;28;19914;-58
2023/02/21 02:55:43;;;;;;;;;;;;;;;;;;1031332;28;20352;-57
2023/02/21 02:56:15;;;;;;;;;;;;;;;;;;1031266;28;20377;-58
2023/02/21 02:56:46;;;;;;;;;;;;;;;;;;1031026;28;19916;-58
2023/02/21 02:57:17;;;;;;;;;;;;;;;;;;1027492;28;19929;-58
2023/02/21 02:57:48;;;;;;;;;;;;;;;;;;1027421;28;20589;-57
2023/02/21 02:58:19;;;;;;;;;;;;;;;;;;1030306;28;19909;-57
2023/02/21 02:58:50;;;;;;;;;;;;;;;;;;1031469;28;19945;-57
2023/02/21 02:59:21;;;;;;;;;;;;;;;;;;1031394;28;19913;-57
2023/02/21 02:59:52;;;;;;;;;;;;;;;;;;1031337;28;19910;-58
2023/02/21 03:00:23;;;;;;;;;;;;;;;;;;1031275;28;19910;-57
2023/02/21 03:00:54;;;;;;;;;;;;;;;;;;1031593;28;19919;-57
2023/02/21 03:01:24;;;;;;;;;;;;;;;;;;1031261;28;19937;-57
2023/02/21 03:01:55;;;;;;;;;;;;;;;;;;1031578;28;19914;-58
2023/02/21 03:02:26;;;;;;;;;;;;;;;;;;1031306;28;19937;-58
2023/02/21 03:02:57;;;;;;;;;;;;;;;;;;1031570;28;20269;-58
2023/02/21 03:03:30;;;;;;;;;;;;;;;;;;1027790;28;19909;-57
2023/02/21 03:04:01;;;;;;;;;;;;;;;;;;1027367;28;19910;-57
2023/02/21 03:04:32;;;;;;;;;;;;;;;;;;1027293;28;19981;-59
2023/02/21 03:05:02;;;;;;;;;;;;;;;;;;1029642;28;19972;-57
2023/02/21 03:05:33;;;;;;;;;;;;;;;;;;1031311;28;19960;-57
2023/02/21 03:06:04;;;;;;;;;;;;;;;;;;1030890;28;19916;-58
2023/02/21 03:06:35;;;;;;;;;;;;;;;;;;1028077;28;19976;-57
2023/02/21 03:07:06;;;;;;;;;;;;;;;;;;1031395;28;20345;-57
2023/02/21 03:07:37;;;;;;;;;;;;;;;;;;1031320;28;19909;-58
2023/02/21 03:08:08;;;;;;;;;;;;;;;;;;1031442;28;19984;-57
2023/02/21 03:08:39;;;;;;;;;;;;;;;;;;1031159;28;19968;-57
2023/02/21 03:09:10;;;;;;;;;;;;;;;;;;1031433;28;20494;-58
2023/02/21 03:09:40;;;;;;;;;;;;;;;;;;1031360;28;20678;-57
2023/02/21 03:10:11;;;;;;;;;;;;;;;;;;1030992;28;19916;-58
2023/02/21 03:10:42;;;;;;;;;;;;;;;;;;1031380;28;20337;-58
2023/02/21 03:11:13;;;;;;;;;;;;;;;;;;1031482;28;19916;-57
2023/02/21 03:11:44;;;;;;;;;;;;;;;;;;1030463;28;19941;-58
2023/02/21 03:12:15;;;;;;;;;;;;;;;;;;1031389;28;19913;-57
2023/02/21 03:12:46;;;;;;;;;;;;;;;;;;1031138;28;20515;-58
2023/02/21 03:13:17;;;;;;;;;;;;;;;;;;1031178;28;20616;-58
2023/02/21 03:13:48;;;;;;;;;;;;;;;;;;1031368;28;19932;-58
2023/02/21 03:14:19;;;;;;;;;;;;;;;;;;1031288;28;20000;-58
2023/02/21 03:14:49;;;;;;;;;;;;;;;;;;1031392;28;19917;-59
2023/02/21 03:15:20;;;;;;;;;;;;;;;;;;1031301;28;20020;-58
2023/02/21 03:15:51;;;;;;;;;;;;;;;;;;1031274;28;19910;-56
2023/02/21 03:16:23;;;;;;;;;;;;;;;;;;1031300;28;19964;-57
2023/02/21 03:16:54;;;;;;;;;;;;;;;;;;1031439;28;20368;-58
2023/02/21 03:17:24;;;;;;;;;;;;;;;;;;1031169;28;20395;-57
2023/02/21 03:17:55;;;;;;;;;;;;;;;;;;1031388;28;19910;-58
2023/02/21 03:18:26;;;;;;;;;;;;;;;;;;1031126;28;19936;-57
2023/02/21 03:18:57;;;;;;;;;;;;;;;;;;1031454;28;19909;-56
2023/02/21 03:19:28;;;;;;;;;;;;;;;;;;1031244;28;19909;-58
2023/02/21 03:19:59;;;;;;;;;;;;;;;;;;1031483;28;19910;-57
2023/02/21 03:20:30;;;;;;;;;;;;;;;;;;1027999;28;19916;-58
2023/02/21 03:21:01;;;;;;;;;;;;;;;;;;1030857;28;19917;-57
2023/02/21 03:21:32;;;;;;;;;;;;;;;;;;1031330;28;19917;-57
2023/02/21 03:22:02;;;;;;;;;;;;;;;;;;1031202;28;20172;-58
2023/02/21 03:22:33;;;;;;;;;;;;;;;;;;1031426;28;19917;-58
2023/02/21 03:23:04;;;;;;;;;;;;;;;;;;1031328;28;20371;-58
2023/02/21 03:23:35;;;;;;;;;;;;;;;;;;1031218;28;19945;-58
2023/02/21 03:24:06;;;;;;;;;;;;;;;;;;1031368;28;20504;-57
2023/02/21 03:24:37;;;;;;;;;;;;;;;;;;1031347;28;19932;-58
2023/02/21 03:25:08;;;;;;;;;;;;;;;;;;1031311;28;19909;-58
2023/02/21 03:25:38;;;;;;;;;;;;;;;;;;1031249;28;20201;-58
2023/02/21 03:26:09;;;;;;;;;;;;;;;;;;1031367;28;19961;-58
2023/02/21 03:26:40;;;;;;;;;;;;;;;;;;1028314;28;20427;-58
2023/02/21 03:27:11;;;;;;;;;;;;;;;;;;1029601;28;19914;-57
2023/02/21 03:27:42;;;;;;;;;;;;;;;;;;1031300;28;19917;-58
2023/02/21 03:28:13;;;;;;;;;;;;;;;;;;1031280;28;20628;-57
2023/02/21 03:28:44;;;;;;;;;;;;;;;;;;1030851;28;19910;-57
2023/02/21 03:29:15;;;;;;;;;;;;;;;;;;1031464;28;19976;-58
2023/02/21 03:29:45;;;;;;;;;;;;;;;;;;1031018;28;20020;-58
2023/02/21 03:30:17;;;;;;;;;;;;;;;;;;1031447;28;20004;-58
2023/02/21 03:30:48;;;;;;;;;;;;;;;;;;1031071;28;20537;-58
2023/02/21 03:31:19;;;;;;;;;;;;;;;;;;1031319;28;20710;-57
2023/02/21 03:31:50;;;;;;;;;;;;;;;;;;1031068;28;19910;-58
2023/02/21 03:32:52;;;;;;;;;;;;;;;;;;1031118;28;20345;-58
2023/02/21 03:33:23;;;;;;;;;;;;;;;;;;1031246;28;20536;-58
2023/02/21 03:33:53;;;;;;;;;;;;;;;;;;1031025;28;20183;-58
2023/02/21 03:34:24;;;;;;;;;;;;;;;;;;1031227;28;20505;-58
2023/02/21 03:34:55;;;;;;;;;;;;;;;;;;1031223;28;19906;-58
2023/02/21 03:35:28;;;;;;;;;;;;;;;;;;1031144;28;20270;-57
2023/02/21 03:35:59;;;;;;;;;;;;;;;;;;1030536;28;19913;-57
2023/02/21 03:36:30;;;;;;;;;;;;;;;;;;1027367;28;20392;-58
2023/02/21 03:37:00;;;;;;;;;;;;;;;;;;1027251;28;20618;-58
2023/02/21 03:37:31;;;;;;;;;;;;;;;;;;1030307;28;19905;-58
2023/02/21 03:38:02;;;;;;;;;;;;;;;;;;1031270;28;20895;-57
2023/02/21 03:38:33;;;;;;;;;;;;;;;;;;1031218;28;19913;-57
2023/02/21 03:39:04;;;;;;;;;;;;;;;;;;1031125;28;19906;-56
2023/02/21 03:39:35;;;;;;;;;;;;;;;;;;1031367;28;19968;-58
2023/02/21 03:40:06;;;;;;;;;;;;;;;;;;1031233;28;19992;-57
2023/02/21 03:40:37;;;;;;;;;;;;;;;;;;1030839;28;19906;-58
2023/02/21 03:41:08;;;;;;;;;;;;;;;;;;1031056;28;20059;-57
2023/02/21 03:41:38;;;;;;;;;;;;;;;;;;1030987;28;19905;-58
2023/02/21 03:42:09;;;;;;;;;;;;;;;;;;1027369;28;19906;-58
2023/02/21 03:42:40;;;;;;;;;;;;;;;;;;1030527;28;19912;-58
2023/02/21 03:43:11;;;;;;;;;;;;;;;;;;1031154;28;19996;-58
2023/02/21 03:43:42;;;;;;;;;;;;;;;;;;1031366;28;19906;-58
2023/02/21 03:44:13;;;;;;;;;;;;;;;;;;1031300;28;19996;-58
2023/02/21 03:44:44;;;;;;;;;;;;;;;;;;1031216;28;19905;-57
2023/02/21 03:45:15;;;;;;;;;;;;;;;;;;1031349;28;20269;-58
2023/02/21 03:45:46;;;;;;;;;;;;;;;;;;1031087;28;19906;-57
2023/02/21 03:46:17;;;;;;;;;;;;;;;;;;1031372;28;20416;-58
2023/02/21 03:46:47;;;;;;;;;;;;;;;;;;1031268;28;19933;-57
2023/02/21 03:47:18;;;;;;;;;;;;;;;;;;1031325;28;20269;-57
2023/02/21 03:47:49;;;;;;;;;;;;;;;;;;1031033;28;20008;-58
2023/02/21 03:48:20;;;;;;;;;;;;;;;;;;1031187;28;19933;-57
2023/02/21 03:48:51;;;;;;;;;;;;;;;;;;1031129;28;19906;-58
2023/02/21 03:49:22;;;;;;;;;;;;;;;;;;1030669;28;19956;-57
2023/02/21 03:49:53;;;;;;;;;;;;;;;;;;1030812;28;19905;-58
2023/02/21 03:50:24;;;;;;;;;;;;;;;;;;1031137;28;19941;-58
2023/02/21 03:50:54;;;;;;;;;;;;;;;;;;1030447;28;20384;-58
2023/02/21 03:51:25;;;;;;;;;;;;;;;;;;1030029;28;19916;-58
2023/02/21 03:51:56;;;;;;;;;;;;;;;;;;1031058;28;20043;-57
2023/02/21 03:52:27;;;;;;;;;;;;;;;;;;1030937;28;20488;-58
2023/02/21 03:52:58;;;;;;;;;;;;;;;;;;1028809;28;19933;-58
2023/02/21 03:53:29;;;;;;;;;;;;;;;;;;1031053;28;20244;-58
2023/02/21 03:54:00;;;;;;;;;;;;;;;;;;1031159;28;19913;-57
2023/02/21 03:54:31;;;;;;;;;;;;;;;;;;1028009;28;19996;-58
2023/02/21 03:55:01;;;;;;;;;;;;;;;;;;1027170;28;19910;-58
2023/02/21 03:55:32;;;;;;;;;;;;;;;;;;1027374;28;19910;-58
2023/02/21 03:56:03;;;;;;;;;;;;;;;;;;1027791;28;20313;-58
2023/02/21 03:56:34;;;;;;;;;;;;;;;;;;1029755;28;20435;-58
2023/02/21 03:57:05;;;;;;;;;;;;;;;;;;1027032;28;20412;-57
2023/02/21 03:57:36;;;;;;;;;;;;;;;;;;1027272;28;19909;-57
2023/02/21 03:58:07;;;;;;;;;;;;;;;;;;1030530;28;20365;-58
2023/02/21 03:58:38;;;;;;;;;;;;;;;;;;1031189;28;19988;-57
2023/02/21 03:59:09;;;;;;;;;;;;;;;;;;1031060;28;20431;-58
2023/02/21 03:59:39;;;;;;;;;;;;;;;;;;1031152;28;19917;-57
2023/02/21 04:00:10;;;;;;;;;;;;;;;;;;1031112;28;20329;-57
2023/02/21 04:00:41;;;;;;;;;;;;;;;;;;1031288;28;19906;-58
2023/02/21 04:01:12;;;;;;;;;;;;;;;;;;1030921;28;19968;-58
2023/02/21 04:01:43;;;;;;;;;;;;;;;;;;1031189;28;19929;-57
2023/02/21 04:02:14;;;;;;;;;;;;;;;;;;1031227;28;19905;-58
2023/02/21 04:02:45;;;;;;;;;;;;;;;;;;1031133;28;19945;-58
2023/02/21 04:03:16;;;;;;;;;;;;;;;;;;1031106;28;19944;-56
2023/02/21 04:03:46;;;;;;;;;;;;;;;;;;1031188;28;19913;-58
2023/02/21 04:04:17;;;;;;;;;;;;;;;;;;1031198;28;19963;-57
2023/02/21 04:04:48;;;;;;;;;;;;;;;;;;1031120;28;19996;-58
2023/02/21 04:05:19;;;;;;;;;;;;;;;;;;1031296;28;19913;-57
2023/02/21 04:05:50;;;;;;;;;;;;;;;;;;1031112;28;20249;-58
2023/02/21 04:06:21;;;;;;;;;;;;;;;;;;1030868;28;19970;-58
2023/02/21 04:06:52;;;;;;;;;;;;;;;;;;1030865;28;20250;-57
2023/02/21 04:07:22;;;;;;;;;;;;;;;;;;1027259;28;19917;-58
2023/02/21 04:07:53;;;;;;;;;;;;;;;;;;1027330;28;20625;-58
2023/02/21 04:08:24;;;;;;;;;;;;;;;;;;1031082;28;19910;-58
2023/02/21 04:08:55;;;;;;;;;;;;;;;;;;1031273;28;20246;-58
2023/02/21 04:09:26;;;;;;;;;;;;;;;;;;1031215;28;20005;-58
2023/02/21 04:09:57;;;;;;;;;;;;;;;;;;1031041;28;20473;-58
2023/02/21 04:10:28;;;;;;;;;;;;;;;;;;1031163;28;19932;-58
2023/02/21 04:10:59;;;;;;;;;;;;;;;;;;1031292;28;19910;-58
2023/02/21 04:11:29;;;;;;;;;;;;;;;;;;1029987;28;19967;-58
2023/02/21 04:12:00;;;;;;;;;;;;;;;;;;1031151;28;20401;-58
2023/02/21 04:12:31;;;;;;;;;;;;;;;;;;1031112;28;19916;-58
2023/02/21 04:13:02;;;;;;;;;;;;;;;;;;1031010;28;20416;-58
2023/02/21 04:13:33;;;;;;;;;;;;;;;;;;1031240;28;19910;-57
2023/02/21 04:14:04;;;;;;;;;;;;;;;;;;1031104;28;19910;-58
2023/02/21 04:14:35;;;;;;;;;;;;;;;;;;1031049;28;19913;-57
2023/02/21 04:15:06;;;;;;;;;;;;;;;;;;1030929;28;19910;-57
2023/02/21 04:15:37;;;;;;;;;;;;;;;;;;1031168;28;19917;-57
2023/02/21 04:16:08;;;;;;;;;;;;;;;;;;1030967;28;20032;-58
2023/02/21 04:16:38;;;;;;;;;;;;;;;;;;1031041;28;19925;-58
2023/02/21 04:17:09;;;;;;;;;;;;;;;;;;1031106;28;19909;-58
2023/02/21 04:17:40;;;;;;;;;;;;;;;;;;1031137;28;20320;-57
2023/02/21 04:18:11;;;;;;;;;;;;;;;;;;1030923;28;20020;-57
2023/02/21 04:18:42;;;;;;;;;;;;;;;;;;1031157;28;20348;-57
2023/02/21 04:19:13;;;;;;;;;;;;;;;;;;1031152;28;19909;-58
2023/02/21 04:19:44;;;;;;;;;;;;;;;;;;1031120;28;20277;-57
2023/02/21 04:20:14;;;;;;;;;;;;;;;;;;1031116;28;19917;-58
2023/02/21 04:20:46;;;;;;;;;;;;;;;;;;1030591;28;19910;-58
2023/02/21 04:21:17;;;;;;;;;;;;;;;;;;1031191;28;20020;-58
2023/02/21 04:21:48;;;;;;;;;;;;;;;;;;1029781;28;20079;-58
2023/02/21 04:22:18;;;;;;;;;;;;;;;;;;1027894;28;19991;-58
2023/02/21 04:22:49;;;;;;;;;;;;;;;;;;1027179;28;19941;-58
2023/02/21 04:23:20;;;;;;;;;;;;;;;;;;1027891;28;19910;-57
2023/02/21 04:23:51;;;;;;;;;;;;;;;;;;1031164;28;19910;-57
2023/02/21 04:24:22;;;;;;;;;;;;;;;;;;1031064;28;20052;-57
2023/02/21 04:24:53;;;;;;;;;;;;;;;;;;1031159;28;19909;-58
2023/02/21 04:25:24;;;;;;;;;;;;;;;;;;1030680;28;20044;-57
2023/02/21 04:25:54;;;;;;;;;;;;;;;;;;1031317;28;19933;-58
2023/02/21 04:26:28;;;;;;;;;;;;;;;;;;1026966;28;19910;-58
2023/02/21 04:27:01;;;;;;;;;;;;;;;;;;1027202;28;19910;-57
2023/02/21 04:27:33;;;;;;;;;;;;;;;;;;1027036;28;19910;-58
2023/02/21 04:28:04;;;;;;;;;;;;;;;;;;1027356;28;19913;-57
2023/02/21 04:28:35;;;;;;;;;;;;;;;;;;1030387;28;19910;-57
2023/02/21 04:29:06;;;;;;;;;;;;;;;;;;1031321;28;19910;-58
2023/02/21 04:29:37;;;;;;;;;;;;;;;;;;1031149;28;20004;-57
2023/02/21 04:30:07;;;;;;;;;;;;;;;;;;1030759;28;19977;-57
2023/02/21 04:30:38;;;;;;;;;;;;;;;;;;1031114;28;20432;-58
2023/02/21 04:31:09;;;;;;;;;;;;;;;;;;1031055;28;19917;-58
2023/02/21 04:31:40;;;;;;;;;;;;;;;;;;1031206;28;20019;-57
2023/02/21 04:32:11;;;;;;;;;;;;;;;;;;1027515;28;20333;-58
2023/02/21 04:32:42;;;;;;;;;;;;;;;;;;1027132;28;20409;-58
2023/02/21 04:33:13;;;;;;;;;;;;;;;;;;1027270;28;19996;-58
2023/02/21 04:33:44;;;;;;;;;;;;;;;;;;1026848;28;20277;-57
2023/02/21 04:34:15;;;;;;;;;;;;;;;;;;1027056;28;19917;-58
2023/02/21 04:34:46;;;;;;;;;;;;;;;;;;1027149;28;20265;-57
2023/02/21 04:35:16;;;;;;;;;;;;;;;;;;1028241;28;19910;-58
2023/02/21 04:35:49;;;;;;;;;;;;;;;;;;1031113;28;19906;-57
2023/02/21 04:36:20;;;;;;;;;;;;;;;;;;1031102;28;19913;-58
2023/02/21 04:36:51;;;;;;;;;;;;;;;;;;1030587;28;19912;-57
2023/02/21 04:37:22;;;;;;;;;;;;;;;;;;1031026;28;19909;-58
2023/02/21 04:37:52;;;;;;;;;;;;;;;;;;1031328;28;20666;-58
2023/02/21 04:38:23;;;;;;;;;;;;;;;;;;1030990;28;20380;-58
2023/02/21 04:38:54;;;;;;;;;;;;;;;;;;1027626;28;19906;-57
2023/02/21 04:39:25;;;;;;;;;;;;;;;;;;1026951;28;19906;-58
2023/02/21 04:39:56;;;;;;;;;;;;;;;;;;1027263;28;19937;-58
2023/02/21 04:40:27;;;;;;;;;;;;;;;;;;1028655;28;19906;-57
2023/02/21 04:40:58;;;;;;;;;;;;;;;;;;1031306;28;19906;-58
2023/02/21 04:41:29;;;;;;;;;;;;;;;;;;1031025;28;20349;-57
2023/02/21 04:42:00;;;;;;;;;;;;;;;;;;1030726;28;19912;-57
2023/02/21 04:42:30;;;;;;;;;;;;;;;;;;1030975;28;19913;-57
2023/02/21 04:43:01;;;;;;;;;;;;;;;;;;1031103;28;19905;-57
2023/02/21 04:43:32;;;;;;;;;;;;;;;;;;1030581;28;20016;-58
2023/02/21 04:44:03;;;;;;;;;;;;;;;;;;1027129;28;19906;-58
2023/02/21 04:44:34;;;;;;;;;;;;;;;;;;1026507;28;20017;-58
2023/02/21 04:45:05;;;;;;;;;;;;;;;;;;1026608;28;20000;-57
2023/02/21 04:45:36;;;;;;;;;;;;;;;;;;1028988;28;19960;-58
2023/02/21 04:46:06;;;;;;;;;;;;;;;;;;1030106;28;20651;-58
2023/02/21 04:46:37;;;;;;;;;;;;;;;;;;1030844;28;19905;-57
2023/02/21 04:47:08;;;;;;;;;;;;;;;;;;1030089;28;20371;-57
2023/02/21 04:47:39;;;;;;;;;;;;;;;;;;1030714;28;19964;-57
2023/02/21 04:48:10;;;;;;;;;;;;;;;;;;1030875;28;20392;-58
2023/02/21 04:48:41;;;;;;;;;;;;;;;;;;1030889;28;19989;-58
2023/02/21 04:49:12;;;;;;;;;;;;;;;;;;1030402;28;20388;-58
2023/02/21 04:49:42;;;;;;;;;;;;;;;;;;1030745;28;19906;-57
2023/02/21 04:50:13;;;;;;;;;;;;;;;;;;1031073;28;20296;-57
2023/02/21 04:50:44;;;;;;;;;;;;;;;;;;1030138;28;19906;-58
2023/02/21 04:51:15;;;;;;;;;;;;;;;;;;1030984;28;19910;-58
2023/02/21 04:51:46;;;;;;;;;;;;;;;;;;1030758;28;20004;-57
2023/02/21 04:52:19;;;;;;;;;;;;;;;;;;1030910;28;19912;-57
2023/02/21 04:52:49;;;;;;;;;;;;;;;;;;1031490;28;20379;-57
2023/02/21 04:53:20;;;;;;;;;;;;;;;;;;1031743;28;20559;-57
2023/02/21 04:53:51;;;;;;;;;;;;;;;;;;1030833;28;19905;-58
2023/02/21 04:54:22;;;;;;;;;;;;;;;;;;1031621;28;20746;-57
2023/02/21 04:54:53;;;;;;;;;;;;;;;;;;1031881;28;19940;-58
2023/02/21 04:55:24;;;;;;;;;;;;;;;;;;1031949;28;19982;-58
2023/02/21 04:55:55;;;;;;;;;;;;;;;;;;1031776;28;19944;-58
2023/02/21 04:56:26;;;;;;;;;;;;;;;;;;1031796;28;19910;-58
2023/02/21 04:56:57;;;;;;;;;;;;;;;;;;1031908;28;19913;-57
2023/02/21 04:57:28;;;;;;;;;;;;;;;;;;1031917;28;19913;-57
2023/02/21 04:57:59;;;;;;;;;;;;;;;;;;1031702;28;20308;-58
2023/02/21 04:58:30;;;;;;;;;;;;;;;;;;1031851;28;19940;-58
2023/02/21 04:59:01;;;;;;;;;;;;;;;;;;1031843;28;19948;-58
2023/02/21 04:59:32;;;;;;;;;;;;;;;;;;1031677;28;19917;-58
2023/02/21 05:00:06;;;;;;;;;;;;;;;;;;1031893;28;20799;-58
2023/02/21 05:00:36;;;;;;;;;;;;;;;;;;1030292;28;19909;-57
2023/02/21 05:01:07;;;;;;;;;;;;;;;;;;1028147;28;20004;-58
2023/02/21 05:01:38;;;;;;;;;;;;;;;;;;1031994;28;19921;-58
2023/02/21 05:02:09;;;;;;;;;;;;;;;;;;1031808;28;19917;-58
2023/02/21 05:02:40;;;;;;;;;;;;;;;;;;1028529;28;20419;-58
2023/02/21 05:03:11;;;;;;;;;;;;;;;;;;1031099;28;20387;-57
2023/02/21 05:03:42;;;;;;;;;;;;;;;;;;1031943;28;19910;-58
2023/02/21 05:04:13;;;;;;;;;;;;;;;;;;1031805;28;20428;-57
2023/02/21 05:04:43;;;;;;;;;;;;;;;;;;1031699;28;19989;-58
2023/02/21 05:05:14;;;;;;;;;;;;;;;;;;1031975;28;20320;-57
2023/02/21 05:05:45;;;;;;;;;;;;;;;;;;1031676;28;19917;-57
2023/02/21 05:06:16;;;;;;;;;;;;;;;;;;1031764;28;19910;-58
2023/02/21 05:06:47;;;;;;;;;;;;;;;;;;1031718;28;20280;-58
2023/02/21 05:07:18;;;;;;;;;;;;;;;;;;1031980;28;19914;-58
2023/02/21 05:07:49;;;;;;;;;;;;;;;;;;1031776;28;19944;-57
2023/02/21 05:08:20;;;;;;;;;;;;;;;;;;1028331;28;19918;-58
2023/02/21 05:08:50;;;;;;;;;;;;;;;;;;1027706;28;19910;-57
2023/02/21 05:09:21;;;;;;;;;;;;;;;;;;1027961;28;19956;-58
2023/02/21 05:09:52;;;;;;;;;;;;;;;;;;1030078;28;19910;-57
2023/02/21 05:10:23;;;;;;;;;;;;;;;;;;1031849;28;20293;-57
2023/02/21 05:10:54;;;;;;;;;;;;;;;;;;1032001;28;19960;-57
2023/02/21 05:11:25;;;;;;;;;;;;;;;;;;1031721;28;20281;-58
2023/02/21 05:11:56;;;;;;;;;;;;;;;;;;1031889;28;20591;-58
2023/02/21 05:12:27;;;;;;;;;;;;;;;;;;1031890;28;20029;-58
2023/02/21 05:12:57;;;;;;;;;;;;;;;;;;1031967;28;20444;-57
2023/02/21 05:13:28;;;;;;;;;;;;;;;;;;1031894;28;19910;-57
2023/02/21 05:13:59;;;;;;;;;;;;;;;;;;1031844;28;19960;-57
2023/02/21 05:14:30;;;;;;;;;;;;;;;;;;1031560;28;19909;-58
2023/02/21 05:15:01;;;;;;;;;;;;;;;;;;1031866;28;20320;-57
2023/02/21 05:15:32;;;;;;;;;;;;;;;;;;1028605;28;19925;-57
2023/02/21 05:16:03;;;;;;;;;;;;;;;;;;1031824;28;19910;-57
2023/02/21 05:16:34;;;;;;;;;;;;;;;;;;1031645;28;20254;-58
2023/02/21 05:17:05;;;;;;;;;;;;;;;;;;1031674;28;19937;-58
2023/02/21 05:17:36;;;;;;;;;;;;;;;;;;1031323;28;20503;-58
2023/02/21 05:18:06;;;;;;;;;;;;;;;;;;1031630;28;19982;-58
2023/02/21 05:18:37;;;;;;;;;;;;;;;;;;1031792;28;20380;-58
2023/02/21 05:19:08;;;;;;;;;;;;;;;;;;1031674;28;20293;-57
2023/02/21 05:19:39;;;;;;;;;;;;;;;;;;1030877;28;19909;-57
2023/02/21 05:20:10;;;;;;;;;;;;;;;;;;1030961;28;19980;-57
2023/02/21 05:20:41;;;;;;;;;;;;;;;;;;1027260;28;19956;-57
2023/02/21 05:21:12;;;;;;;;;;;;;;;;;;1029443;28;19914;-58
2023/02/21 05:21:43;;;;;;;;;;;;;;;;;;1031691;28;19909;-58
2023/02/21 05:22:19;;;;;;;;;;;;;;;;;;1028010;28;19914;-57
2023/02/21 05:22:50;;;;;;;;;;;;;;;;;;1031190;28;19921;-57
2023/02/21 05:23:54;;;;;;;;;;;;;;;;;;1031698;28;20381;-56
2023/02/21 05:24:12;;;;;;;;;;;;;;;;;;1027376;28;19945;-57
2023/02/21 05:24:42;;;;;;;;;;;;;;;;;;1027553;28;20016;-57
2023/02/21 05:25:13;;;;;;;;;;;;;;;;;;1027779;28;20000;-57
2023/02/21 05:25:44;;;;;;;;;;;;;;;;;;1027546;28;19949;-58
2023/02/21 05:26:15;;;;;;;;;;;;;;;;;;1029644;28;19910;-57
2023/02/21 05:26:46;;;;;;;;;;;;;;;;;;1029940;28;19910;-58
2023/02/21 05:27:17;;;;;;;;;;;;;;;;;;1029596;28;20009;-58
2023/02/21 05:27:48;;;;;;;;;;;;;;;;;;1031541;28;19909;-58
2023/02/21 05:28:19;;;;;;;;;;;;;;;;;;1031531;28;19921;-57
2023/02/21 05:28:50;;;;;;;;;;;;;;;;;;1031698;28;19909;-58
2023/02/21 05:29:21;;;;;;;;;;;;;;;;;;1031808;28;19910;-58
2023/02/21 05:29:52;;;;;;;;;;;;;;;;;;1031513;28;19916;-57
2023/02/21 05:30:22;;;;;;;;;;;;;;;;;;1028460;28;19910;-57
2023/02/21 05:30:53;;;;;;;;;;;;;;;;;;1027679;28;19921;-57
2023/02/21 05:31:24;;;;;;;;;;;;;;;;;;1029918;28;19913;-57
2023/02/21 05:31:55;;;;;;;;;;;;;;;;;;1030851;28;20029;-57
2023/02/21 05:32:28;;;;;;;;;;;;;;;;;;1027685;28;19910;-57
2023/02/21 05:32:59;;;;;;;;;;;;;;;;;;1029114;28;19910;-57
2023/02/21 05:33:31;;;;;;;;;;;;;;;;;;1030476;28;19910;-58
2023/02/21 05:34:02;;;;;;;;;;;;;;;;;;1027569;28;19914;-58
2023/02/21 05:34:33;;;;;;;;;;;;;;;;;;1027528;28;19965;-58
2023/02/21 05:35:04;;;;;;;;;;;;;;;;;;1027630;28;20403;-57
2023/02/21 05:35:35;;;;;;;;;;;;;;;;;;1027546;28;19938;-58
2023/02/21 05:36:05;;;;;;;;;;;;;;;;;;1027613;28;20258;-58
2023/02/21 05:36:36;;;;;;;;;;;;;;;;;;1027454;28;19916;-58
2023/02/21 05:37:07;;;;;;;;;;;;;;;;;;1027475;28;20376;-58
2023/02/21 05:37:38;;;;;;;;;;;;;;;;;;1027544;28;19909;-57
2023/02/21 05:38:09;;;;;;;;;;;;;;;;;;1027573;28;19992;-57
2023/02/21 05:38:40;;;;;;;;;;;;;;;;;;1028011;28;20365;-57
2023/02/21 05:39:11;;;;;;;;;;;;;;;;;;1027622;28;19910;-58
2023/02/21 05:39:42;;;;;;;;;;;;;;;;;;1029517;28;20657;-58
2023/02/21 05:40:13;;;;;;;;;;;;;;;;;;1027573;28;19917;-57
2023/02/21 05:40:44;;;;;;;;;;;;;;;;;;1027329;28;19972;-57
2023/02/21 05:41:15;;;;;;;;;;;;;;;;;;1027684;28;20040;-57
2023/02/21 05:41:46;;;;;;;;;;;;;;;;;;1027368;28;20456;-58
2023/02/21 05:42:17;;;;;;;;;;;;;;;;;;1028062;28;20008;-58
2023/02/21 05:42:47;;;;;;;;;;;;;;;;;;1027486;28;19918;-58
2023/02/21 05:43:18;;;;;;;;;;;;;;;;;;1027498;28;19969;-58
2023/02/21 05:43:49;;;;;;;;;;;;;;;;;;1028387;28;19921;-58
2023/02/21 05:44:20;;;;;;;;;;;;;;;;;;1031382;28;19959;-57
2023/02/21 05:44:51;;;;;;;;;;;;;;;;;;1031417;28;19960;-57
2023/02/21 05:45:22;;;;;;;;;;;;;;;;;;1030538;28;19936;-57
2023/02/21 05:45:53;;;;;;;;;;;;;;;;;;1027564;28;19910;-57